Terminal Aerodrome Forecast
Issued by NWS

Home | Current Version | Previous Version | Text Only | Print | Product List | Glossary On
Versions: 1 2 3 4 5 6 7 8 9 10 11 12 13
953
FTUS44 KLIX 200537
TAFMCB
TAF
KMCB 200537Z 2006/2106 17003KT P6SM OVC060
     FM201400 14004KT P6SM BKN090
     FM201800 16008KT P6SM BKN060
     FM210100 15006KT P6SM SCT050=

USA.gov is the U.S. government's official web portal to all federal, state and local government web resources and services.